sensor_id;sensor_type;location;lat;lon;timestamp;P1;durP1;ratioP1;P2;durP2;ratioP2
74320;SDS011;62738;45.772;4.804;2023-05-13T00:02:25;5.15;;;2.90;;
74320;SDS011;62738;45.772;4.804;2023-05-13T00:04:51;4.18;;;2.80;;
74320;SDS011;62738;45.772;4.804;2023-05-13T00:07:18;3.88;;;2.78;;
74320;SDS011;62738;45.772;4.804;2023-05-13T00:09:44;3.67;;;2.65;;
74320;SDS011;62738;45.772;4.804;2023-05-13T00:12:11;5.20;;;2.80;;
74320;SDS011;62738;45.772;4.804;2023-05-13T00:14:37;4.70;;;3.08;;
74320;SDS011;62738;45.772;4.804;2023-05-13T00:17:04;5.05;;;3.05;;
74320;SDS011;62738;45.772;4.804;2023-05-13T00:19:31;4.43;;;2.50;;
74320;SDS011;62738;45.772;4.804;2023-05-13T00:21:57;5.43;;;2.90;;
74320;SDS011;62738;45.772;4.804;2023-05-13T00:24:24;5.70;;;3.38;;
74320;SDS011;62738;45.772;4.804;2023-05-13T00:26:51;6.05;;;3.05;;
74320;SDS011;62738;45.772;4.804;2023-05-13T00:29:17;7.18;;;2.72;;
74320;SDS011;62738;45.772;4.804;2023-05-13T00:31:44;4.78;;;2.97;;
74320;SDS011;62738;45.772;4.804;2023-05-13T00:34:11;3.38;;;2.70;;
74320;SDS011;62738;45.772;4.804;2023-05-13T00:36:37;5.57;;;2.78;;
74320;SDS011;62738;45.772;4.804;2023-05-13T00:39:04;4.65;;;2.80;;
74320;SDS011;62738;45.772;4.804;2023-05-13T00:41:30;4.55;;;2.97;;
74320;SDS011;62738;45.772;4.804;2023-05-13T00:43:57;3.85;;;2.67;;
74320;SDS011;62738;45.772;4.804;2023-05-13T00:46:24;4.03;;;2.88;;
74320;SDS011;62738;45.772;4.804;2023-05-13T00:48:50;6.88;;;2.72;;
74320;SDS011;62738;45.772;4.804;2023-05-13T00:51:17;5.30;;;3.03;;
74320;SDS011;62738;45.772;4.804;2023-05-13T00:53:44;3.97;;;2.95;;
74320;SDS011;62738;45.772;4.804;2023-05-13T00:56:11;4.95;;;3.20;;
74320;SDS011;62738;45.772;4.804;2023-05-13T00:58:37;5.35;;;2.80;;
74320;SDS011;62738;45.772;4.804;2023-05-13T01:03:52;6.68;;;2.80;;
74320;SDS011;62738;45.772;4.804;2023-05-13T01:06:35;4.65;;;3.22;;
74320;SDS011;62738;45.772;4.804;2023-05-13T01:09:16;4.03;;;2.88;;
74320;SDS011;62738;45.772;4.804;2023-05-13T01:11:46;4.68;;;3.20;;
74320;SDS011;62738;45.772;4.804;2023-05-13T01:14:18;4.35;;;3.08;;
74320;SDS011;62738;45.772;4.804;2023-05-13T01:16:52;3.83;;;3.00;;
74320;SDS011;62738;45.772;4.804;2023-05-13T01:22:04;4.53;;;3.30;;
74320;SDS011;62738;45.772;4.804;2023-05-13T01:24:31;4.75;;;3.10;;
74320;SDS011;62738;45.772;4.804;2023-05-13T01:26:58;5.03;;;2.80;;
74320;SDS011;62738;45.772;4.804;2023-05-13T01:29:25;3.83;;;2.75;;
74320;SDS011;62738;45.772;4.804;2023-05-13T01:31:52;4.85;;;2.60;;
74320;SDS011;62738;45.772;4.804;2023-05-13T01:34:21;6.78;;;2.90;;
74320;SDS011;62738;45.772;4.804;2023-05-13T01:36:49;4.43;;;2.88;;
74320;SDS011;62738;45.772;4.804;2023-05-13T01:39:16;3.90;;;2.75;;
74320;SDS011;62738;45.772;4.804;2023-05-13T01:41:45;4.57;;;2.90;;
74320;SDS011;62738;45.772;4.804;2023-05-13T01:44:12;4.22;;;2.72;;
74320;SDS011;62738;45.772;4.804;2023-05-13T01:46:38;8.35;;;3.25;;
74320;SDS011;62738;45.772;4.804;2023-05-13T01:49:05;6.47;;;2.95;;
74320;SDS011;62738;45.772;4.804;2023-05-13T01:51:34;4.57;;;2.70;;
74320;SDS011;62738;45.772;4.804;2023-05-13T01:54:05;4.32;;;2.58;;
74320;SDS011;62738;45.772;4.804;2023-05-13T01:56:32;5.22;;;2.97;;
74320;SDS011;62738;45.772;4.804;2023-05-13T01:58:59;5.15;;;3.45;;
74320;SDS011;62738;45.772;4.804;2023-05-13T02:01:26;5.50;;;3.20;;
74320;SDS011;62738;45.772;4.804;2023-05-13T02:03:52;4.57;;;2.83;;
74320;SDS011;62738;45.772;4.804;2023-05-13T02:06:19;7.13;;;2.97;;
74320;SDS011;62738;45.772;4.804;2023-05-13T02:08:46;4.40;;;3.03;;
74320;SDS011;62738;45.772;4.804;2023-05-13T02:11:12;4.47;;;2.65;;
74320;SDS011;62738;45.772;4.804;2023-05-13T02:13:39;4.05;;;2.78;;
74320;SDS011;62738;45.772;4.804;2023-05-13T02:16:05;4.57;;;3.00;;
74320;SDS011;62738;45.772;4.804;2023-05-13T02:18:32;3.92;;;2.85;;
74320;SDS011;62738;45.772;4.804;2023-05-13T02:20:59;3.92;;;3.08;;
74320;SDS011;62738;45.772;4.804;2023-05-13T02:23:25;5.57;;;3.25;;
74320;SDS011;62738;45.772;4.804;2023-05-13T02:25:52;4.63;;;2.83;;
74320;SDS011;62738;45.772;4.804;2023-05-13T02:28:18;4.28;;;3.50;;
74320;SDS011;62738;45.772;4.804;2023-05-13T02:30:45;5.10;;;2.80;;
74320;SDS011;62738;45.772;4.804;2023-05-13T02:33:12;5.68;;;2.97;;
74320;SDS011;62738;45.772;4.804;2023-05-13T02:35:38;4.55;;;3.10;;
74320;SDS011;62738;45.772;4.804;2023-05-13T02:38:07;4.90;;;2.80;;
74320;SDS011;62738;45.772;4.804;2023-05-13T02:40:35;4.10;;;2.88;;
74320;SDS011;62738;45.772;4.804;2023-05-13T02:43:02;4.85;;;2.67;;
74320;SDS011;62738;45.772;4.804;2023-05-13T02:45:29;4.70;;;2.75;;
74320;SDS011;62738;45.772;4.804;2023-05-13T02:47:55;3.50;;;2.90;;
74320;SDS011;62738;45.772;4.804;2023-05-13T02:50:22;6.25;;;2.80;;
74320;SDS011;62738;45.772;4.804;2023-05-13T02:52:49;3.95;;;2.97;;
74320;SDS011;62738;45.772;4.804;2023-05-13T02:55:16;5.60;;;3.00;;
74320;SDS011;62738;45.772;4.804;2023-05-13T02:57:43;4.85;;;2.95;;
74320;SDS011;62738;45.772;4.804;2023-05-13T03:00:09;4.25;;;2.90;;
74320;SDS011;62738;45.772;4.804;2023-05-13T03:02:37;5.00;;;2.90;;
74320;SDS011;62738;45.772;4.804;2023-05-13T03:05:04;4.38;;;3.08;;
74320;SDS011;62738;45.772;4.804;2023-05-13T03:07:31;4.68;;;3.05;;
74320;SDS011;62738;45.772;4.804;2023-05-13T03:09:57;4.15;;;2.80;;
74320;SDS011;62738;45.772;4.804;2023-05-13T03:12:24;5.03;;;2.90;;
74320;SDS011;62738;45.772;4.804;2023-05-13T03:14:51;4.07;;;2.97;;
74320;SDS011;62738;45.772;4.804;2023-05-13T03:17:17;4.90;;;3.05;;
74320;SDS011;62738;45.772;4.804;2023-05-13T03:19:44;5.80;;;3.00;;
74320;SDS011;62738;45.772;4.804;2023-05-13T03:22:11;5.40;;;3.25;;
74320;SDS011;62738;45.772;4.804;2023-05-13T03:24:37;4.60;;;3.05;;
74320;SDS011;62738;45.772;4.804;2023-05-13T03:27:04;4.80;;;3.63;;
74320;SDS011;62738;45.772;4.804;2023-05-13T03:29:30;5.22;;;3.45;;
74320;SDS011;62738;45.772;4.804;2023-05-13T03:31:57;5.00;;;3.30;;
74320;SDS011;62738;45.772;4.804;2023-05-13T03:34:24;4.85;;;3.60;;
74320;SDS011;62738;45.772;4.804;2023-05-13T03:36:50;5.35;;;3.67;;
74320;SDS011;62738;45.772;4.804;2023-05-13T03:39:17;4.60;;;3.65;;
74320;SDS011;62738;45.772;4.804;2023-05-13T03:41:44;4.45;;;3.30;;
74320;SDS011;62738;45.772;4.804;2023-05-13T03:44:10;7.28;;;3.53;;
74320;SDS011;62738;45.772;4.804;2023-05-13T03:46:37;4.95;;;3.65;;
74320;SDS011;62738;45.772;4.804;2023-05-13T03:49:04;5.97;;;4.00;;
74320;SDS011;62738;45.772;4.804;2023-05-13T03:51:30;6.20;;;3.80;;
74320;SDS011;62738;45.772;4.804;2023-05-13T03:53:59;6.13;;;4.22;;
74320;SDS011;62738;45.772;4.804;2023-05-13T03:56:26;6.75;;;4.03;;
74320;SDS011;62738;45.772;4.804;2023-05-13T03:58:53;5.18;;;3.47;;
74320;SDS011;62738;45.772;4.804;2023-05-13T04:01:20;9.60;;;5.10;;
74320;SDS011;62738;45.772;4.804;2023-05-13T04:03:47;7.60;;;4.65;;
74320;SDS011;62738;45.772;4.804;2023-05-13T04:06:15;5.95;;;4.32;;
74320;SDS011;62738;45.772;4.804;2023-05-13T04:08:41;7.22;;;4.70;;
74320;SDS011;62738;45.772;4.804;2023-05-13T04:11:08;7.68;;;4.95;;
74320;SDS011;62738;45.772;4.804;2023-05-13T04:13:35;6.57;;;4.38;;
74320;SDS011;62738;45.772;4.804;2023-05-13T04:16:02;5.88;;;4.45;;
74320;SDS011;62738;45.772;4.804;2023-05-13T04:18:29;8.10;;;5.10;;
74320;SDS011;62738;45.772;4.804;2023-05-13T04:20:56;7.45;;;5.00;;
74320;SDS011;62738;45.772;4.804;2023-05-13T04:23:23;7.80;;;4.72;;
74320;SDS011;62738;45.772;4.804;2023-05-13T04:25:50;5.82;;;4.35;;
74320;SDS011;62738;45.772;4.804;2023-05-13T04:28:17;6.20;;;4.55;;
74320;SDS011;62738;45.772;4.804;2023-05-13T04:30:44;7.05;;;4.68;;
74320;SDS011;62738;45.772;4.804;2023-05-13T04:33:11;6.45;;;4.68;;
74320;SDS011;62738;45.772;4.804;2023-05-13T04:35:38;5.60;;;4.50;;
74320;SDS011;62738;45.772;4.804;2023-05-13T04:38:04;6.85;;;4.80;;
74320;SDS011;62738;45.772;4.804;2023-05-13T04:40:31;7.82;;;4.47;;
74320;SDS011;62738;45.772;4.804;2023-05-13T04:42:58;8.30;;;5.72;;
74320;SDS011;62738;45.772;4.804;2023-05-13T04:45:25;8.30;;;5.40;;
74320;SDS011;62738;45.772;4.804;2023-05-13T04:47:51;7.50;;;4.63;;
74320;SDS011;62738;45.772;4.804;2023-05-13T04:50:23;6.72;;;4.90;;
74320;SDS011;62738;45.772;4.804;2023-05-13T04:52:50;6.03;;;4.93;;
74320;SDS011;62738;45.772;4.804;2023-05-13T04:55:17;8.85;;;5.13;;
74320;SDS011;62738;45.772;4.804;2023-05-13T04:57:44;6.80;;;5.25;;
74320;SDS011;62738;45.772;4.804;2023-05-13T05:00:11;7.25;;;5.22;;
74320;SDS011;62738;45.772;4.804;2023-05-13T05:02:38;9.00;;;5.28;;
74320;SDS011;62738;45.772;4.804;2023-05-13T05:05:04;7.40;;;5.30;;
74320;SDS011;62738;45.772;4.804;2023-05-13T05:07:31;5.80;;;4.32;;
74320;SDS011;62738;45.772;4.804;2023-05-13T05:09:58;7.20;;;5.22;;
74320;SDS011;62738;45.772;4.804;2023-05-13T05:12:25;7.57;;;5.50;;
74320;SDS011;62738;45.772;4.804;2023-05-13T05:14:51;6.68;;;5.53;;
74320;SDS011;62738;45.772;4.804;2023-05-13T05:17:18;7.60;;;5.85;;
74320;SDS011;62738;45.772;4.804;2023-05-13T05:19:44;7.93;;;5.10;;
74320;SDS011;62738;45.772;4.804;2023-05-13T05:22:11;8.25;;;6.32;;
74320;SDS011;62738;45.772;4.804;2023-05-13T05:24:38;9.10;;;5.93;;
74320;SDS011;62738;45.772;4.804;2023-05-13T05:27:04;9.00;;;6.78;;
74320;SDS011;62738;45.772;4.804;2023-05-13T05:29:31;7.68;;;6.28;;
74320;SDS011;62738;45.772;4.804;2023-05-13T05:31:57;10.13;;;6.82;;
74320;SDS011;62738;45.772;4.804;2023-05-13T05:34:24;9.57;;;6.55;;
74320;SDS011;62738;45.772;4.804;2023-05-13T05:36:51;8.50;;;5.82;;
74320;SDS011;62738;45.772;4.804;2023-05-13T05:39:20;7.90;;;6.40;;
74320;SDS011;62738;45.772;4.804;2023-05-13T05:41:47;9.13;;;5.60;;
74320;SDS011;62738;45.772;4.804;2023-05-13T05:44:13;10.00;;;6.65;;
74320;SDS011;62738;45.772;4.804;2023-05-13T05:46:40;7.82;;;5.47;;
74320;SDS011;62738;45.772;4.804;2023-05-13T05:49:07;8.98;;;5.82;;
74320;SDS011;62738;45.772;4.804;2023-05-13T05:51:34;7.63;;;5.82;;
74320;SDS011;62738;45.772;4.804;2023-05-13T05:54:00;8.88;;;6.10;;
74320;SDS011;62738;45.772;4.804;2023-05-13T05:56:27;7.13;;;5.30;;
74320;SDS011;62738;45.772;4.804;2023-05-13T05:58:54;9.13;;;6.28;;
74320;SDS011;62738;45.772;4.804;2023-05-13T06:01:20;9.27;;;5.85;;
74320;SDS011;62738;45.772;4.804;2023-05-13T06:03:47;6.63;;;5.43;;
74320;SDS011;62738;45.772;4.804;2023-05-13T06:06:14;6.53;;;5.20;;
74320;SDS011;62738;45.772;4.804;2023-05-13T06:08:41;9.60;;;6.10;;
74320;SDS011;62738;45.772;4.804;2023-05-13T06:11:07;11.45;;;6.22;;
74320;SDS011;62738;45.772;4.804;2023-05-13T06:13:34;8.63;;;5.30;;
74320;SDS011;62738;45.772;4.804;2023-05-13T06:16:01;7.90;;;5.38;;
74320;SDS011;62738;45.772;4.804;2023-05-13T06:18:27;9.60;;;5.78;;
74320;SDS011;62738;45.772;4.804;2023-05-13T06:20:54;6.88;;;5.35;;
74320;SDS011;62738;45.772;4.804;2023-05-13T06:23:20;8.23;;;5.50;;
74320;SDS011;62738;45.772;4.804;2023-05-13T06:25:47;7.43;;;5.38;;
74320;SDS011;62738;45.772;4.804;2023-05-13T06:28:13;8.00;;;5.18;;
74320;SDS011;62738;45.772;4.804;2023-05-13T06:30:40;9.68;;;4.95;;
74320;SDS011;62738;45.772;4.804;2023-05-13T06:33:07;7.93;;;5.57;;
74320;SDS011;62738;45.772;4.804;2023-05-13T06:35:36;7.15;;;5.43;;
74320;SDS011;62738;45.772;4.804;2023-05-13T06:38:02;8.65;;;5.07;;
74320;SDS011;62738;45.772;4.804;2023-05-13T06:40:29;7.40;;;5.63;;
74320;SDS011;62738;45.772;4.804;2023-05-13T06:42:56;8.18;;;5.45;;
74320;SDS011;62738;45.772;4.804;2023-05-13T06:45:22;6.45;;;5.13;;
74320;SDS011;62738;45.772;4.804;2023-05-13T06:47:51;7.20;;;5.70;;
74320;SDS011;62738;45.772;4.804;2023-05-13T06:50:18;7.97;;;5.45;;
74320;SDS011;62738;45.772;4.804;2023-05-13T06:52:45;6.88;;;5.63;;
74320;SDS011;62738;45.772;4.804;2023-05-13T06:55:12;6.70;;;4.65;;
74320;SDS011;62738;45.772;4.804;2023-05-13T06:57:42;7.65;;;5.43;;
74320;SDS011;62738;45.772;4.804;2023-05-13T07:00:12;7.72;;;5.55;;
74320;SDS011;62738;45.772;4.804;2023-05-13T07:02:39;8.35;;;5.32;;
74320;SDS011;62738;45.772;4.804;2023-05-13T07:05:07;6.97;;;4.97;;
74320;SDS011;62738;45.772;4.804;2023-05-13T07:07:37;10.15;;;5.85;;
74320;SDS011;62738;45.772;4.804;2023-05-13T07:10:04;7.43;;;5.43;;
74320;SDS011;62738;45.772;4.804;2023-05-13T07:12:31;7.50;;;5.70;;
74320;SDS011;62738;45.772;4.804;2023-05-13T07:14:58;9.43;;;5.85;;
74320;SDS011;62738;45.772;4.804;2023-05-13T07:17:25;9.48;;;5.10;;
74320;SDS011;62738;45.772;4.804;2023-05-13T07:19:51;8.73;;;5.78;;
74320;SDS011;62738;45.772;4.804;2023-05-13T07:22:18;7.28;;;5.38;;
74320;SDS011;62738;45.772;4.804;2023-05-13T07:24:45;8.57;;;5.40;;
74320;SDS011;62738;45.772;4.804;2023-05-13T07:27:11;10.30;;;5.78;;
74320;SDS011;62738;45.772;4.804;2023-05-13T07:29:38;11.82;;;6.15;;
74320;SDS011;62738;45.772;4.804;2023-05-13T07:32:05;7.75;;;5.32;;
74320;SDS011;62738;45.772;4.804;2023-05-13T07:34:32;7.03;;;5.38;;
74320;SDS011;62738;45.772;4.804;2023-05-13T07:36:58;7.15;;;5.45;;
74320;SDS011;62738;45.772;4.804;2023-05-13T07:39:25;9.07;;;5.65;;
74320;SDS011;62738;45.772;4.804;2023-05-13T07:41:52;9.07;;;5.68;;
74320;SDS011;62738;45.772;4.804;2023-05-13T07:44:19;8.10;;;5.80;;
74320;SDS011;62738;45.772;4.804;2023-05-13T07:46:46;8.00;;;5.10;;
74320;SDS011;62738;45.772;4.804;2023-05-13T07:49:14;9.32;;;5.50;;
74320;SDS011;62738;45.772;4.804;2023-05-13T07:51:41;7.50;;;5.25;;
74320;SDS011;62738;45.772;4.804;2023-05-13T07:54:07;6.45;;;5.32;;
74320;SDS011;62738;45.772;4.804;2023-05-13T07:56:34;9.10;;;5.47;;
74320;SDS011;62738;45.772;4.804;2023-05-13T07:59:01;7.15;;;5.63;;
74320;SDS011;62738;45.772;4.804;2023-05-13T08:01:27;8.43;;;5.60;;
74320;SDS011;62738;45.772;4.804;2023-05-13T08:03:54;7.15;;;5.28;;
74320;SDS011;62738;45.772;4.804;2023-05-13T08:06:21;7.13;;;5.50;;
74320;SDS011;62738;45.772;4.804;2023-05-13T08:08:49;7.13;;;5.35;;
74320;SDS011;62738;45.772;4.804;2023-05-13T08:11:15;7.15;;;5.20;;
74320;SDS011;62738;45.772;4.804;2023-05-13T08:13:42;8.88;;;5.57;;
74320;SDS011;62738;45.772;4.804;2023-05-13T08:16:10;6.45;;;4.80;;
74320;SDS011;62738;45.772;4.804;2023-05-13T08:18:37;7.65;;;4.95;;
74320;SDS011;62738;45.772;4.804;2023-05-13T08:21:03;6.80;;;4.93;;
74320;SDS011;62738;45.772;4.804;2023-05-13T08:23:30;6.28;;;4.85;;
74320;SDS011;62738;45.772;4.804;2023-05-13T08:26:09;6.18;;;4.55;;
74320;SDS011;62738;45.772;4.804;2023-05-13T08:28:36;8.52;;;5.25;;
74320;SDS011;62738;45.772;4.804;2023-05-13T08:31:03;7.15;;;5.47;;
74320;SDS011;62738;45.772;4.804;2023-05-13T08:33:30;6.45;;;5.43;;
74320;SDS011;62738;45.772;4.804;2023-05-13T08:35:58;8.23;;;5.47;;
74320;SDS011;62738;45.772;4.804;2023-05-13T08:38:25;7.07;;;5.38;;
74320;SDS011;62738;45.772;4.804;2023-05-13T08:40:52;6.63;;;5.22;;
74320;SDS011;62738;45.772;4.804;2023-05-13T08:43:18;9.07;;;5.15;;
74320;SDS011;62738;45.772;4.804;2023-05-13T08:45:48;6.45;;;4.82;;
74320;SDS011;62738;45.772;4.804;2023-05-13T08:48:18;7.35;;;4.85;;
74320;SDS011;62738;45.772;4.804;2023-05-13T08:50:46;9.05;;;5.10;;
74320;SDS011;62738;45.772;4.804;2023-05-13T08:53:13;6.50;;;5.20;;
74320;SDS011;62738;45.772;4.804;2023-05-13T08:55:42;7.05;;;5.10;;
74320;SDS011;62738;45.772;4.804;2023-05-13T08:58:08;6.20;;;5.15;;
74320;SDS011;62738;45.772;4.804;2023-05-13T09:00:35;8.98;;;5.20;;
74320;SDS011;62738;45.772;4.804;2023-05-13T09:03:02;5.95;;;5.07;;
74320;SDS011;62738;45.772;4.804;2023-05-13T09:05:28;6.80;;;5.07;;
74320;SDS011;62738;45.772;4.804;2023-05-13T09:07:57;8.27;;;5.57;;
74320;SDS011;62738;45.772;4.804;2023-05-13T09:10:24;8.75;;;5.40;;
74320;SDS011;62738;45.772;4.804;2023-05-13T09:12:53;7.63;;;5.60;;
74320;SDS011;62738;45.772;4.804;2023-05-13T09:15:21;8.55;;;5.57;;
74320;SDS011;62738;45.772;4.804;2023-05-13T09:17:53;8.02;;;5.03;;
74320;SDS011;62738;45.772;4.804;2023-05-13T09:20:24;6.00;;;4.38;;
74320;SDS011;62738;45.772;4.804;2023-05-13T09:25:42;7.78;;;5.03;;
74320;SDS011;62738;45.772;4.804;2023-05-13T09:28:13;7.43;;;5.30;;
74320;SDS011;62738;45.772;4.804;2023-05-13T09:30:40;7.28;;;4.93;;
74320;SDS011;62738;45.772;4.804;2023-05-13T09:35:48;5.30;;;4.75;;
74320;SDS011;62738;45.772;4.804;2023-05-13T09:38:28;6.68;;;4.82;;
74320;SDS011;62738;45.772;4.804;2023-05-13T09:40:58;6.45;;;4.95;;
74320;SDS011;62738;45.772;4.804;2023-05-13T09:43:26;5.78;;;4.95;;
74320;SDS011;62738;45.772;4.804;2023-05-13T09:45:57;6.88;;;4.72;;
74320;SDS011;62738;45.772;4.804;2023-05-13T09:48:27;5.95;;;4.53;;
74320;SDS011;62738;45.772;4.804;2023-05-13T09:50:55;9.57;;;4.65;;
74320;SDS011;62738;45.772;4.804;2023-05-13T09:53:27;6.32;;;4.60;;
74320;SDS011;62738;45.772;4.804;2023-05-13T09:55:54;5.65;;;4.53;;
74320;SDS011;62738;45.772;4.804;2023-05-13T09:58:23;7.25;;;4.70;;
74320;SDS011;62738;45.772;4.804;2023-05-13T10:00:50;6.63;;;4.80;;
74320;SDS011;62738;45.772;4.804;2023-05-13T10:03:17;6.38;;;5.07;;
74320;SDS011;62738;45.772;4.804;2023-05-13T10:05:44;6.97;;;4.70;;
74320;SDS011;62738;45.772;4.804;2023-05-13T10:08:12;6.72;;;4.93;;
74320;SDS011;62738;45.772;4.804;2023-05-13T10:10:43;5.55;;;4.72;;
74320;SDS011;62738;45.772;4.804;2023-05-13T10:13:13;9.45;;;5.10;;
74320;SDS011;62738;45.772;4.804;2023-05-13T10:15:50;5.38;;;4.65;;
74320;SDS011;62738;45.772;4.804;2023-05-13T10:18:19;7.28;;;5.00;;
74320;SDS011;62738;45.772;4.804;2023-05-13T10:20:46;7.15;;;5.00;;
74320;SDS011;62738;45.772;4.804;2023-05-13T10:23:18;6.75;;;4.60;;
74320;SDS011;62738;45.772;4.804;2023-05-13T10:25:46;6.32;;;4.80;;
74320;SDS011;62738;45.772;4.804;2023-05-13T10:28:13;6.80;;;4.90;;
74320;SDS011;62738;45.772;4.804;2023-05-13T10:30:41;5.63;;;4.70;;
74320;SDS011;62738;45.772;4.804;2023-05-13T10:33:09;7.03;;;5.05;;
74320;SDS011;62738;45.772;4.804;2023-05-13T10:35:36;6.13;;;4.85;;
74320;SDS011;62738;45.772;4.804;2023-05-13T10:38:09;6.95;;;4.93;;
74320;SDS011;62738;45.772;4.804;2023-05-13T10:43:34;6.30;;;4.72;;
74320;SDS011;62738;45.772;4.804;2023-05-13T10:48:46;6.85;;;5.20;;
74320;SDS011;62738;45.772;4.804;2023-05-13T10:51:14;7.82;;;5.05;;
74320;SDS011;62738;45.772;4.804;2023-05-13T10:53:42;7.63;;;4.90;;
74320;SDS011;62738;45.772;4.804;2023-05-13T10:56:12;7.32;;;5.00;;
74320;SDS011;62738;45.772;4.804;2023-05-13T10:58:40;6.35;;;4.88;;
74320;SDS011;62738;45.772;4.804;2023-05-13T11:01:26;5.97;;;4.13;;
74320;SDS011;62738;45.772;4.804;2023-05-13T11:03:57;5.88;;;4.68;;
74320;SDS011;62738;45.772;4.804;2023-05-13T11:06:32;5.50;;;4.47;;
74320;SDS011;62738;45.772;4.804;2023-05-13T11:08:59;7.28;;;4.53;;
74320;SDS011;62738;45.772;4.804;2023-05-13T11:11:28;5.55;;;4.30;;
74320;SDS011;62738;45.772;4.804;2023-05-13T11:16:24;5.63;;;4.72;;
74320;SDS011;62738;45.772;4.804;2023-05-13T11:18:51;7.20;;;5.25;;
74320;SDS011;62738;45.772;4.804;2023-05-13T11:21:28;5.93;;;4.32;;
74320;SDS011;62738;45.772;4.804;2023-05-13T11:24:03;7.00;;;4.43;;
74320;SDS011;62738;45.772;4.804;2023-05-13T11:29:27;6.65;;;4.53;;
74320;SDS011;62738;45.772;4.804;2023-05-13T11:31:57;4.05;;;3.50;;
74320;SDS011;62738;45.772;4.804;2023-05-13T11:34:26;5.45;;;4.25;;
74320;SDS011;62738;45.772;4.804;2023-05-13T11:39:30;7.50;;;4.72;;
74320;SDS011;62738;45.772;4.804;2023-05-13T11:41:58;6.00;;;4.22;;
74320;SDS011;62738;45.772;4.804;2023-05-13T11:44:26;8.45;;;3.75;;
74320;SDS011;62738;45.772;4.804;2023-05-13T11:46:54;4.63;;;3.78;;
74320;SDS011;62738;45.772;4.804;2023-05-13T11:49:32;5.55;;;4.30;;
74320;SDS011;62738;45.772;4.804;2023-05-13T11:52:05;5.47;;;4.05;;
74320;SDS011;62738;45.772;4.804;2023-05-13T11:57:22;4.75;;;3.70;;
74320;SDS011;62738;45.772;4.804;2023-05-13T12:02:33;6.95;;;4.03;;
74320;SDS011;62738;45.772;4.804;2023-05-13T12:05:06;4.78;;;3.70;;
74320;SDS011;62738;45.772;4.804;2023-05-13T12:07:35;4.85;;;3.65;;
74320;SDS011;62738;45.772;4.804;2023-05-13T12:10:03;7.47;;;4.00;;
74320;SDS011;62738;45.772;4.804;2023-05-13T12:12:32;4.93;;;3.55;;
74320;SDS011;62738;45.772;4.804;2023-05-13T12:15:03;4.55;;;3.75;;
74320;SDS011;62738;45.772;4.804;2023-05-13T12:17:33;5.90;;;3.83;;
74320;SDS011;62738;45.772;4.804;2023-05-13T12:20:10;4.95;;;3.70;;
74320;SDS011;62738;45.772;4.804;2023-05-13T12:28:11;5.38;;;4.35;;
74320;SDS011;62738;45.772;4.804;2023-05-13T12:33:20;4.65;;;3.58;;
74320;SDS011;62738;45.772;4.804;2023-05-13T12:35:51;4.43;;;3.65;;
74320;SDS011;62738;45.772;4.804;2023-05-13T12:38:19;4.97;;;4.03;;
74320;SDS011;62738;45.772;4.804;2023-05-13T12:40:49;4.85;;;3.22;;
74320;SDS011;62738;45.772;4.804;2023-05-13T12:43:17;4.03;;;3.53;;
74320;SDS011;62738;45.772;4.804;2023-05-13T12:45:45;4.57;;;3.47;;
74320;SDS011;62738;45.772;4.804;2023-05-13T12:48:13;5.85;;;3.20;;
74320;SDS011;62738;45.772;4.804;2023-05-13T12:50:39;4.28;;;2.85;;
74320;SDS011;62738;45.772;4.804;2023-05-13T12:53:06;5.75;;;3.10;;
74320;SDS011;62738;45.772;4.804;2023-05-13T12:55:33;3.90;;;2.75;;
74320;SDS011;62738;45.772;4.804;2023-05-13T12:58:05;3.30;;;2.50;;
74320;SDS011;62738;45.772;4.804;2023-05-13T13:00:33;2.17;;;1.52;;
74320;SDS011;62738;45.772;4.804;2023-05-13T13:02:59;2.97;;;1.80;;
74320;SDS011;62738;45.772;4.804;2023-05-13T13:05:26;2.58;;;1.60;;
74320;SDS011;62738;45.772;4.804;2023-05-13T13:07:53;1.60;;;1.20;;
74320;SDS011;62738;45.772;4.804;2023-05-13T13:10:19;2.10;;;1.52;;
74320;SDS011;62738;45.772;4.804;2023-05-13T13:12:46;1.77;;;1.30;;
74320;SDS011;62738;45.772;4.804;2023-05-13T13:15:13;2.42;;;1.60;;
74320;SDS011;62738;45.772;4.804;2023-05-13T13:17:40;3.55;;;1.80;;
74320;SDS011;62738;45.772;4.804;2023-05-13T13:20:06;2.92;;;2.15;;
74320;SDS011;62738;45.772;4.804;2023-05-13T13:22:34;2.35;;;1.88;;
74320;SDS011;62738;45.772;4.804;2023-05-13T13:25:04;3.97;;;2.00;;
74320;SDS011;62738;45.772;4.804;2023-05-13T13:27:32;3.25;;;2.00;;
74320;SDS011;62738;45.772;4.804;2023-05-13T13:29:59;3.65;;;2.00;;
74320;SDS011;62738;45.772;4.804;2023-05-13T13:32:26;3.25;;;2.22;;
74320;SDS011;62738;45.772;4.804;2023-05-13T13:34:53;3.88;;;2.88;;
74320;SDS011;62738;45.772;4.804;2023-05-13T13:37:19;3.83;;;2.58;;
74320;SDS011;62738;45.772;4.804;2023-05-13T13:39:46;4.03;;;2.00;;
74320;SDS011;62738;45.772;4.804;2023-05-13T13:42:13;4.57;;;2.03;;
74320;SDS011;62738;45.772;4.804;2023-05-13T13:44:39;2.78;;;1.35;;
74320;SDS011;62738;45.772;4.804;2023-05-13T13:47:06;3.53;;;1.73;;
74320;SDS011;62738;45.772;4.804;2023-05-13T13:49:32;2.38;;;1.40;;
74320;SDS011;62738;45.772;4.804;2023-05-13T13:51:59;2.53;;;1.55;;
74320;SDS011;62738;45.772;4.804;2023-05-13T13:54:25;2.53;;;1.70;;
74320;SDS011;62738;45.772;4.804;2023-05-13T13:56:52;3.50;;;1.90;;
74320;SDS011;62738;45.772;4.804;2023-05-13T13:59:19;4.63;;;1.95;;
74320;SDS011;62738;45.772;4.804;2023-05-13T14:01:45;4.22;;;2.40;;
74320;SDS011;62738;45.772;4.804;2023-05-13T14:04:13;5.03;;;1.92;;
74320;SDS011;62738;45.772;4.804;2023-05-13T14:06:43;4.50;;;2.55;;
74320;SDS011;62738;45.772;4.804;2023-05-13T14:09:10;2.83;;;1.70;;
74320;SDS011;62738;45.772;4.804;2023-05-13T14:11:36;5.10;;;2.70;;
74320;SDS011;62738;45.772;4.804;2023-05-13T14:14:03;7.45;;;4.75;;
74320;SDS011;62738;45.772;4.804;2023-05-13T14:16:29;4.22;;;2.67;;
74320;SDS011;62738;45.772;4.804;2023-05-13T14:18:56;3.80;;;2.50;;
74320;SDS011;62738;45.772;4.804;2023-05-13T14:21:23;3.38;;;1.52;;
74320;SDS011;62738;45.772;4.804;2023-05-13T14:23:50;3.85;;;2.50;;
74320;SDS011;62738;45.772;4.804;2023-05-13T14:26:17;6.40;;;3.85;;
74320;SDS011;62738;45.772;4.804;2023-05-13T14:28:44;7.80;;;5.03;;
74320;SDS011;62738;45.772;4.804;2023-05-13T14:31:10;5.15;;;3.30;;
74320;SDS011;62738;45.772;4.804;2023-05-13T14:33:37;4.10;;;3.17;;
74320;SDS011;62738;45.772;4.804;2023-05-13T14:36:04;4.97;;;3.47;;
74320;SDS011;62738;45.772;4.804;2023-05-13T14:38:31;6.05;;;4.70;;
74320;SDS011;62738;45.772;4.804;2023-05-13T14:40:57;5.82;;;2.95;;
74320;SDS011;62738;45.772;4.804;2023-05-13T14:43:24;3.95;;;2.75;;
74320;SDS011;62738;45.772;4.804;2023-05-13T14:45:51;5.03;;;2.80;;
74320;SDS011;62738;45.772;4.804;2023-05-13T14:48:17;2.97;;;1.70;;
74320;SDS011;62738;45.772;4.804;2023-05-13T14:50:44;4.05;;;2.03;;
74320;SDS011;62738;45.772;4.804;2023-05-13T14:53:12;2.83;;;1.83;;
74320;SDS011;62738;45.772;4.804;2023-05-13T14:55:38;5.93;;;1.90;;
74320;SDS011;62738;45.772;4.804;2023-05-13T14:58:05;4.90;;;2.53;;
74320;SDS011;62738;45.772;4.804;2023-05-13T15:00:35;4.45;;;2.10;;
74320;SDS011;62738;45.772;4.804;2023-05-13T15:03:06;2.88;;;1.73;;
74320;SDS011;62738;45.772;4.804;2023-05-13T15:05:33;4.88;;;1.92;;
74320;SDS011;62738;45.772;4.804;2023-05-13T15:08:00;2.50;;;1.63;;
74320;SDS011;62738;45.772;4.804;2023-05-13T15:10:26;3.42;;;2.08;;
74320;SDS011;62738;45.772;4.804;2023-05-13T15:12:53;1.92;;;1.30;;
74320;SDS011;62738;45.772;4.804;2023-05-13T15:15:20;3.67;;;1.45;;
74320;SDS011;62738;45.772;4.804;2023-05-13T15:17:48;2.50;;;1.40;;
74320;SDS011;62738;45.772;4.804;2023-05-13T15:20:14;2.35;;;1.50;;
74320;SDS011;62738;45.772;4.804;2023-05-13T15:22:41;2.28;;;1.50;;
74320;SDS011;62738;45.772;4.804;2023-05-13T15:25:09;2.60;;;1.45;;
74320;SDS011;62738;45.772;4.804;2023-05-13T15:27:36;2.13;;;1.00;;
74320;SDS011;62738;45.772;4.804;2023-05-13T15:30:02;2.90;;;1.30;;